sensor_id;sensor_type;location;lat;lon;timestamp;pressure;altitude;pressure_sealevel;temperature;humidity
23363;BME280;11853;48.080;11.960;2022-12-18T00:01:34;95827.09;;;-4.09;100.00
23363;BME280;11853;48.080;11.960;2022-12-18T00:04:04;95816.41;;;-3.98;100.00
23363;BME280;11853;48.080;11.960;2022-12-18T00:06:35;95814.09;;;-3.76;100.00
23363;BME280;11853;48.080;11.960;2022-12-18T00:09:02;95813.97;;;-3.72;100.00
23363;BME280;11853;48.080;11.960;2022-12-18T00:11:30;95817.44;;;-4.04;100.00
23363;BME280;11853;48.080;11.960;2022-12-18T00:13:58;95821.75;;;-4.03;100.00
23363;BME280;11853;48.080;11.960;2022-12-18T00:16:30;95813.34;;;-4.13;100.00
23363;BME280;11853;48.080;11.960;2022-12-18T00:18:59;95821.91;;;-4.09;100.00
23363;BME280;11853;48.080;11.960;2022-12-18T00:21:31;95817.47;;;-4.05;100.00
23363;BME280;11853;48.080;11.960;2022-12-18T00:23:58;95807.78;;;-3.97;100.00
23363;BME280;11853;48.080;11.960;2022-12-18T00:26:29;95818.03;;;-3.94;100.00
23363;BME280;11853;48.080;11.960;2022-12-18T00:28:58;95815.41;;;-3.93;100.00
23363;BME280;11853;48.080;11.960;2022-12-18T00:31:25;95806.91;;;-3.98;100.00
23363;BME280;11853;48.080;11.960;2022-12-18T00:33:51;95805.53;;;-4.11;100.00
23363;BME280;11853;48.080;11.960;2022-12-18T00:36:28;95803.00;;;-3.81;100.00
23363;BME280;11853;48.080;11.960;2022-12-18T00:38:55;95815.56;;;-3.68;100.00
23363;BME280;11853;48.080;11.960;2022-12-18T00:41:22;95805.22;;;-3.99;100.00
23363;BME280;11853;48.080;11.960;2022-12-18T00:44:07;95801.72;;;-3.98;100.00
23363;BME280;11853;48.080;11.960;2022-12-18T00:46:34;95803.16;;;-3.88;100.00
23363;BME280;11853;48.080;11.960;2022-12-18T00:49:00;95812.94;;;-3.97;100.00
23363;BME280;11853;48.080;11.960;2022-12-18T00:51:26;95807.06;;;-4.04;100.00
23363;BME280;11853;48.080;11.960;2022-12-18T00:53:52;95815.97;;;-3.81;100.00
23363;BME280;11853;48.080;11.960;2022-12-18T00:56:23;95821.47;;;-3.94;100.00
23363;BME280;11853;48.080;11.960;2022-12-18T00:58:49;95824.25;;;-4.00;100.00
23363;BME280;11853;48.080;11.960;2022-12-18T01:01:15;95823.09;;;-3.90;100.00
23363;BME280;11853;48.080;11.960;2022-12-18T01:03:41;95833.75;;;-4.00;100.00
23363;BME280;11853;48.080;11.960;2022-12-18T01:06:09;95835.69;;;-4.09;100.00
23363;BME280;11853;48.080;11.960;2022-12-18T01:08:35;95835.44;;;-3.99;100.00
23363;BME280;11853;48.080;11.960;2022-12-18T01:11:07;95839.72;;;-3.97;100.00
23363;BME280;11853;48.080;11.960;2022-12-18T01:13:33;95843.41;;;-4.07;100.00
23363;BME280;11853;48.080;11.960;2022-12-18T01:15:58;95840.56;;;-3.96;100.00
23363;BME280;11853;48.080;11.960;2022-12-18T01:18:24;95830.00;;;-3.90;100.00
23363;BME280;11853;48.080;11.960;2022-12-18T01:20:50;95832.75;;;-3.95;100.00
23363;BME280;11853;48.080;11.960;2022-12-18T01:23:15;95835.66;;;-4.07;100.00
23363;BME280;11853;48.080;11.960;2022-12-18T01:25:41;95831.84;;;-3.94;100.00
23363;BME280;11853;48.080;11.960;2022-12-18T01:28:06;95841.56;;;-4.02;100.00
23363;BME280;11853;48.080;11.960;2022-12-18T01:30:32;95840.56;;;-3.96;100.00
23363;BME280;11853;48.080;11.960;2022-12-18T01:32:57;95844.81;;;-3.94;100.00
23363;BME280;11853;48.080;11.960;2022-12-18T01:35:23;95849.72;;;-3.83;100.00
23363;BME280;11853;48.080;11.960;2022-12-18T01:37:48;95860.44;;;-3.97;100.00
23363;BME280;11853;48.080;11.960;2022-12-18T01:40:14;95854.09;;;-3.87;100.00
23363;BME280;11853;48.080;11.960;2022-12-18T01:42:39;95860.50;;;-4.00;100.00
23363;BME280;11853;48.080;11.960;2022-12-18T01:47:48;95873.31;;;-3.94;100.00
23363;BME280;11853;48.080;11.960;2022-12-18T01:50:36;95878.91;;;-4.09;100.00
23363;BME280;11853;48.080;11.960;2022-12-18T01:53:07;95887.28;;;-4.01;100.00
23363;BME280;11853;48.080;11.960;2022-12-18T01:55:40;95894.94;;;-3.95;100.00
23363;BME280;11853;48.080;11.960;2022-12-18T01:58:08;95897.56;;;-3.96;100.00
23363;BME280;11853;48.080;11.960;2022-12-18T02:00:34;95904.25;;;-3.88;100.00
23363;BME280;11853;48.080;11.960;2022-12-18T02:02:59;95903.97;;;-3.77;100.00
23363;BME280;11853;48.080;11.960;2022-12-18T02:05:40;95899.78;;;-3.82;100.00
23363;BME280;11853;48.080;11.960;2022-12-18T02:16:19;95880.50;;;-3.72;100.00
23363;BME280;11853;48.080;11.960;2022-12-18T02:18:49;95881.72;;;-3.86;100.00
23363;BME280;11853;48.080;11.960;2022-12-18T02:21:54;95876.09;;;-4.01;100.00
23363;BME280;11853;48.080;11.960;2022-12-18T02:24:24;95866.09;;;-3.82;100.00
23363;BME280;11853;48.080;11.960;2022-12-18T02:26:57;95869.03;;;-3.95;100.00
23363;BME280;11853;48.080;11.960;2022-12-18T02:29:34;95882.59;;;-3.87;100.00
23363;BME280;11853;48.080;11.960;2022-12-18T02:32:04;95869.50;;;-3.80;100.00
23363;BME280;11853;48.080;11.960;2022-12-18T02:34:33;95869.06;;;-3.96;100.00
23363;BME280;11853;48.080;11.960;2022-12-18T02:37:04;95887.34;;;-4.02;100.00
23363;BME280;11853;48.080;11.960;2022-12-18T02:39:33;95865.63;;;-3.97;100.00
23363;BME280;11853;48.080;11.960;2022-12-18T02:41:59;95863.94;;;-3.99;100.00
23363;BME280;11853;48.080;11.960;2022-12-18T02:44:29;95863.13;;;-4.01;100.00
23363;BME280;11853;48.080;11.960;2022-12-18T02:46:54;95861.88;;;-3.87;100.00
23363;BME280;11853;48.080;11.960;2022-12-18T02:49:41;95875.72;;;-3.88;100.00
23363;BME280;11853;48.080;11.960;2022-12-18T02:52:24;95869.44;;;-3.79;100.00
23363;BME280;11853;48.080;11.960;2022-12-18T02:55:16;95873.13;;;-3.88;100.00
23363;BME280;11853;48.080;11.960;2022-12-18T02:57:52;95866.19;;;-3.86;100.00
23363;BME280;11853;48.080;11.960;2022-12-18T03:00:23;95857.91;;;-3.67;100.00
23363;BME280;11853;48.080;11.960;2022-12-18T03:03:10;95855.66;;;-3.79;100.00
23363;BME280;11853;48.080;11.960;2022-12-18T03:05:44;95867.13;;;-3.57;100.00
23363;BME280;11853;48.080;11.960;2022-12-18T03:08:18;95862.03;;;-3.60;100.00
23363;BME280;11853;48.080;11.960;2022-12-18T03:11:03;95875.03;;;-3.62;100.00
23363;BME280;11853;48.080;11.960;2022-12-18T03:13:39;95877.69;;;-3.63;100.00
23363;BME280;11853;48.080;11.960;2022-12-18T03:16:09;95870.09;;;-3.71;100.00
23363;BME280;11853;48.080;11.960;2022-12-18T03:18:37;95873.50;;;-3.69;100.00
23363;BME280;11853;48.080;11.960;2022-12-18T03:21:06;95874.28;;;-3.67;100.00
23363;BME280;11853;48.080;11.960;2022-12-18T03:23:46;95876.81;;;-3.64;100.00
23363;BME280;11853;48.080;11.960;2022-12-18T03:26:16;95870.03;;;-3.69;100.00
23363;BME280;11853;48.080;11.960;2022-12-18T03:28:50;95871.03;;;-3.73;100.00
23363;BME280;11853;48.080;11.960;2022-12-18T03:31:18;95866.75;;;-3.74;100.00
23363;BME280;11853;48.080;11.960;2022-12-18T03:33:57;95870.34;;;-3.80;100.00
23363;BME280;11853;48.080;11.960;2022-12-18T03:36:24;95854.81;;;-3.81;100.00
23363;BME280;11853;48.080;11.960;2022-12-18T03:38:50;95869.13;;;-3.99;100.00
23363;BME280;11853;48.080;11.960;2022-12-18T03:41:23;95869.03;;;-3.95;100.00
23363;BME280;11853;48.080;11.960;2022-12-18T03:46:33;95861.72;;;-3.80;100.00
23363;BME280;11853;48.080;11.960;2022-12-18T03:49:10;95856.28;;;-3.71;100.00
23363;BME280;11853;48.080;11.960;2022-12-18T03:51:44;95863.25;;;-3.73;100.00
23363;BME280;11853;48.080;11.960;2022-12-18T03:54:13;95868.34;;;-3.70;100.00
23363;BME280;11853;48.080;11.960;2022-12-18T03:56:42;95871.94;;;-3.74;100.00
23363;BME280;11853;48.080;11.960;2022-12-18T03:59:10;95882.13;;;-4.01;100.00
23363;BME280;11853;48.080;11.960;2022-12-18T04:01:40;95879.53;;;-4.01;100.00
23363;BME280;11853;48.080;11.960;2022-12-18T04:04:09;95882.66;;;-3.88;100.00
23363;BME280;11853;48.080;11.960;2022-12-18T04:06:36;95877.91;;;-3.72;100.00
23363;BME280;11853;48.080;11.960;2022-12-18T04:09:04;95884.03;;;-3.75;100.00
23363;BME280;11853;48.080;11.960;2022-12-18T04:11:30;95891.13;;;-3.81;100.00
23363;BME280;11853;48.080;11.960;2022-12-18T04:13:57;95870.28;;;-3.77;100.00
23363;BME280;11853;48.080;11.960;2022-12-18T04:16:24;95876.22;;;-3.73;100.00
23363;BME280;11853;48.080;11.960;2022-12-18T04:18:50;95863.25;;;-3.73;100.00
23363;BME280;11853;48.080;11.960;2022-12-18T04:21:16;95874.75;;;-3.83;100.00
23363;BME280;11853;48.080;11.960;2022-12-18T04:23:41;95885.19;;;-3.87;100.00
23363;BME280;11853;48.080;11.960;2022-12-18T04:26:07;95885.34;;;-3.93;100.00
23363;BME280;11853;48.080;11.960;2022-12-18T04:28:33;95884.78;;;-4.04;100.00
23363;BME280;11853;48.080;11.960;2022-12-18T04:30:58;95884.41;;;-3.89;100.00
23363;BME280;11853;48.080;11.960;2022-12-18T04:33:24;95886.84;;;-3.82;100.00
23363;BME280;11853;48.080;11.960;2022-12-18T04:35:49;95872.31;;;-3.90;100.00
23363;BME280;11853;48.080;11.960;2022-12-18T04:38:15;95871.47;;;-3.90;100.00
23363;BME280;11853;48.080;11.960;2022-12-18T04:40:41;95862.78;;;-3.88;100.00
23363;BME280;11853;48.080;11.960;2022-12-18T04:43:07;95871.53;;;-3.92;100.00
23363;BME280;11853;48.080;11.960;2022-12-18T04:45:33;95884.41;;;-3.89;100.00
23363;BME280;11853;48.080;11.960;2022-12-18T04:47:59;95889.34;;;-3.79;100.00
23363;BME280;11853;48.080;11.960;2022-12-18T04:50:25;95894.28;;;-3.70;100.00
23363;BME280;11853;48.080;11.960;2022-12-18T04:52:51;95894.34;;;-3.72;100.00
23363;BME280;11853;48.080;11.960;2022-12-18T04:55:17;95889.00;;;-3.67;100.00
23363;BME280;11853;48.080;11.960;2022-12-18T04:57:43;95888.00;;;-3.62;100.00
23363;BME280;11853;48.080;11.960;2022-12-18T05:00:09;95900.75;;;-3.54;100.00
23363;BME280;11853;48.080;11.960;2022-12-18T05:02:35;95900.53;;;-3.77;100.00
23363;BME280;11853;48.080;11.960;2022-12-18T05:05:02;95905.81;;;-3.82;100.00
23363;BME280;11853;48.080;11.960;2022-12-18T05:07:29;95903.91;;;-3.75;100.00
23363;BME280;11853;48.080;11.960;2022-12-18T05:09:55;95905.97;;;-3.55;100.00
23363;BME280;11853;48.080;11.960;2022-12-18T05:12:21;95902.72;;;-3.64;100.00
23363;BME280;11853;48.080;11.960;2022-12-18T05:14:47;95906.16;;;-3.96;100.00
23363;BME280;11853;48.080;11.960;2022-12-18T05:17:13;95902.97;;;-4.05;100.00
23363;BME280;11853;48.080;11.960;2022-12-18T05:19:38;95912.25;;;-3.97;100.00
23363;BME280;11853;48.080;11.960;2022-12-18T05:22:05;95917.34;;;-3.94;100.00
23363;BME280;11853;48.080;11.960;2022-12-18T05:24:30;95913.06;;;-3.62;100.00
23363;BME280;11853;48.080;11.960;2022-12-18T05:26:56;95934.13;;;-3.74;100.00
23363;BME280;11853;48.080;11.960;2022-12-18T05:29:22;95939.25;;;-3.71;100.00
23363;BME280;11853;48.080;11.960;2022-12-18T05:31:47;95932.81;;;-3.91;100.00
23363;BME280;11853;48.080;11.960;2022-12-18T05:34:13;95929.53;;;-3.97;100.00
23363;BME280;11853;48.080;11.960;2022-12-18T05:36:39;95936.00;;;-3.81;100.00
23363;BME280;11853;48.080;11.960;2022-12-18T05:39:04;95929.50;;;-3.96;100.00
23363;BME280;11853;48.080;11.960;2022-12-18T05:41:31;95924.53;;;-4.05;100.00
23363;BME280;11853;48.080;11.960;2022-12-18T05:43:58;95918.97;;;-3.90;100.00
23363;BME280;11853;48.080;11.960;2022-12-18T05:46:23;95929.50;;;-3.96;100.00
23363;BME280;11853;48.080;11.960;2022-12-18T05:48:49;95931.22;;;-3.95;100.00
23363;BME280;11853;48.080;11.960;2022-12-18T05:51:19;95936.72;;;-4.09;100.00
23363;BME280;11853;48.080;11.960;2022-12-18T05:53:45;95935.88;;;-4.09;100.00
23363;BME280;11853;48.080;11.960;2022-12-18T05:56:18;95945.50;;;-4.14;100.00
23363;BME280;11853;48.080;11.960;2022-12-18T05:58:45;95945.88;;;-3.95;100.00
23363;BME280;11853;48.080;11.960;2022-12-18T06:01:15;95941.25;;;-4.17;100.00
23363;BME280;11853;48.080;11.960;2022-12-18T06:03:41;95949.88;;;-4.18;100.00
23363;BME280;11853;48.080;11.960;2022-12-18T06:06:21;95951.03;;;-4.30;100.00
23363;BME280;11853;48.080;11.960;2022-12-18T06:08:48;95948.59;;;-4.36;100.00
23363;BME280;11853;48.080;11.960;2022-12-18T06:11:17;95955.06;;;-4.18;100.00
23363;BME280;11853;48.080;11.960;2022-12-18T06:13:43;95960.75;;;-4.38;100.00
23363;BME280;11853;48.080;11.960;2022-12-18T06:16:08;95959.09;;;-4.42;100.00
23363;BME280;11853;48.080;11.960;2022-12-18T06:18:38;95962.66;;;-4.47;100.00
23363;BME280;11853;48.080;11.960;2022-12-18T06:21:03;95950.22;;;-4.32;100.00
23363;BME280;11853;48.080;11.960;2022-12-18T06:23:29;95955.44;;;-4.33;100.00
23363;BME280;11853;48.080;11.960;2022-12-18T06:25:55;95958.03;;;-4.33;100.00
23363;BME280;11853;48.080;11.960;2022-12-18T06:28:21;95962.97;;;-4.22;100.00
23363;BME280;11853;48.080;11.960;2022-12-18T06:30:47;95975.16;;;-4.27;100.00
23363;BME280;11853;48.080;11.960;2022-12-18T06:33:14;95960.13;;;-4.49;100.00
23363;BME280;11853;48.080;11.960;2022-12-18T06:35:40;95959.44;;;-4.57;100.00
23363;BME280;11853;48.080;11.960;2022-12-18T06:38:06;95954.06;;;-4.49;100.00
23363;BME280;11853;48.080;11.960;2022-12-18T06:40:32;95968.06;;;-4.58;100.00
23363;BME280;11853;48.080;11.960;2022-12-18T06:42:59;95962.97;;;-4.60;100.00
23363;BME280;11853;48.080;11.960;2022-12-18T06:45:24;95965.16;;;-4.43;100.00
23363;BME280;11853;48.080;11.960;2022-12-18T06:47:50;95973.09;;;-4.50;100.00
23363;BME280;11853;48.080;11.960;2022-12-18T06:50:16;95974.16;;;-4.59;100.00
23363;BME280;11853;48.080;11.960;2022-12-18T06:52:42;95961.34;;;-4.65;100.00
23363;BME280;11853;48.080;11.960;2022-12-18T06:55:10;95968.22;;;-4.64;100.00
23363;BME280;11853;48.080;11.960;2022-12-18T06:57:36;95975.66;;;-4.49;100.00
23363;BME280;11853;48.080;11.960;2022-12-18T07:00:05;95980.03;;;-4.53;100.00
23363;BME280;11853;48.080;11.960;2022-12-18T07:02:31;95979.19;;;-4.53;100.00
23363;BME280;11853;48.080;11.960;2022-12-18T07:04:57;95993.84;;;-4.52;100.00
23363;BME280;11853;48.080;11.960;2022-12-18T07:07:22;95990.22;;;-4.45;100.00
23363;BME280;11853;48.080;11.960;2022-12-18T07:09:51;95985.66;;;-4.34;100.00
23363;BME280;11853;48.080;11.960;2022-12-18T07:12:17;95998.56;;;-4.32;100.00
23363;BME280;11853;48.080;11.960;2022-12-18T07:14:43;95996.47;;;-4.55;100.00
23363;BME280;11853;48.080;11.960;2022-12-18T07:17:09;96003.25;;;-4.48;100.00
23363;BME280;11853;48.080;11.960;2022-12-18T07:19:34;96009.75;;;-4.69;100.00
23363;BME280;11853;48.080;11.960;2022-12-18T07:22:00;96016.47;;;-4.60;100.00
23363;BME280;11853;48.080;11.960;2022-12-18T07:24:26;96013.75;;;-4.54;100.00
23363;BME280;11853;48.080;11.960;2022-12-18T07:26:52;96017.66;;;-4.36;100.00
23363;BME280;11853;48.080;11.960;2022-12-18T07:29:18;96026.19;;;-4.31;100.00
23363;BME280;11853;48.080;11.960;2022-12-18T07:31:44;96021.03;;;-4.33;100.00
23363;BME280;11853;48.080;11.960;2022-12-18T07:34:11;96026.31;;;-4.37;100.00
23363;BME280;11853;48.080;11.960;2022-12-18T07:36:38;96031.84;;;-4.54;100.00
23363;BME280;11853;48.080;11.960;2022-12-18T07:39:03;96020.41;;;-4.44;100.00
23363;BME280;11853;48.080;11.960;2022-12-18T07:41:29;96020.81;;;-4.62;100.00
23363;BME280;11853;48.080;11.960;2022-12-18T07:43:55;96026.41;;;-4.84;100.00
23363;BME280;11853;48.080;11.960;2022-12-18T07:46:21;96028.06;;;-4.80;100.00
23363;BME280;11853;48.080;11.960;2022-12-18T07:48:47;96034.16;;;-4.82;100.00
23363;BME280;11853;48.080;11.960;2022-12-18T07:51:13;96043.72;;;-4.86;100.00
23363;BME280;11853;48.080;11.960;2022-12-18T07:53:39;96036.59;;;-4.74;100.00
23363;BME280;11853;48.080;11.960;2022-12-18T07:56:10;96040.63;;;-4.61;100.00
23363;BME280;11853;48.080;11.960;2022-12-18T07:58:36;96025.16;;;-4.63;100.00
23363;BME280;11853;48.080;11.960;2022-12-18T08:03:29;96040.94;;;-4.77;100.00
23363;BME280;11853;48.080;11.960;2022-12-18T08:06:00;96030.66;;;-4.80;100.00
23363;BME280;11853;48.080;11.960;2022-12-18T08:08:26;96029.13;;;-4.90;100.00
23363;BME280;11853;48.080;11.960;2022-12-18T08:10:51;96025.56;;;-4.83;100.00
23363;BME280;11853;48.080;11.960;2022-12-18T08:13:17;96021.53;;;-4.97;100.00
23363;BME280;11853;48.080;11.960;2022-12-18T08:15:43;96023.22;;;-4.95;100.00
23363;BME280;11853;48.080;11.960;2022-12-18T08:18:08;96024.19;;;-5.01;100.00
23363;BME280;11853;48.080;11.960;2022-12-18T08:20:34;96032.41;;;-5.25;100.00
23363;BME280;11853;48.080;11.960;2022-12-18T08:23:00;96020.09;;;-5.12;100.00
23363;BME280;11853;48.080;11.960;2022-12-18T08:25:25;96036.88;;;-5.33;100.00
23363;BME280;11853;48.080;11.960;2022-12-18T08:27:51;96034.09;;;-5.23;100.00
23363;BME280;11853;48.080;11.960;2022-12-18T08:30:17;96035.78;;;-5.22;100.00
23363;BME280;11853;48.080;11.960;2022-12-18T08:32:42;96044.44;;;-5.24;100.00
23363;BME280;11853;48.080;11.960;2022-12-18T08:35:08;96040.56;;;-5.00;100.00
23363;BME280;11853;48.080;11.960;2022-12-18T08:37:34;96050.38;;;-5.17;100.00
23363;BME280;11853;48.080;11.960;2022-12-18T08:40:00;96049.59;;;-5.23;100.00
23363;BME280;11853;48.080;11.960;2022-12-18T08:42:26;96046.75;;;-5.09;100.00
23363;BME280;11853;48.080;11.960;2022-12-18T08:45:10;96045.69;;;-4.99;100.00
23363;BME280;11853;48.080;11.960;2022-12-18T08:47:36;96056.84;;;-4.95;100.00
23363;BME280;11853;48.080;11.960;2022-12-18T08:50:01;96051.94;;;-5.09;100.00
23363;BME280;11853;48.080;11.960;2022-12-18T08:52:27;96055.13;;;-4.94;100.00
23363;BME280;11853;48.080;11.960;2022-12-18T08:54:53;96056.78;;;-4.92;100.00
23363;BME280;11853;48.080;11.960;2022-12-18T08:57:19;96059.28;;;-4.87;100.00
23363;BME280;11853;48.080;11.960;2022-12-18T08:59:44;96064.44;;;-4.87;100.00
23363;BME280;11853;48.080;11.960;2022-12-18T09:02:11;96061.78;;;-4.84;100.00
23363;BME280;11853;48.080;11.960;2022-12-18T09:04:36;96057.97;;;-4.65;100.00
23363;BME280;11853;48.080;11.960;2022-12-18T09:07:02;96056.91;;;-4.56;100.00
23363;BME280;11853;48.080;11.960;2022-12-18T09:09:28;96056.63;;;-4.84;100.00
23363;BME280;11853;48.080;11.960;2022-12-18T09:11:53;96061.31;;;-4.61;100.00
23363;BME280;11853;48.080;11.960;2022-12-18T09:14:19;96057.47;;;-4.42;100.00
23363;BME280;11853;48.080;11.960;2022-12-18T09:16:45;96055.28;;;-4.60;100.00
23363;BME280;11853;48.080;11.960;2022-12-18T09:19:11;96061.50;;;-4.69;100.00
23363;BME280;11853;48.080;11.960;2022-12-18T09:21:36;96063.06;;;-4.62;100.00
23363;BME280;11853;48.080;11.960;2022-12-18T09:24:03;96050.97;;;-4.61;100.00
23363;BME280;11853;48.080;11.960;2022-12-18T09:26:29;96061.41;;;-4.64;100.00
23363;BME280;11853;48.080;11.960;2022-12-18T09:28:55;96064.06;;;-4.67;100.00
23363;BME280;11853;48.080;11.960;2022-12-18T09:31:22;96056.50;;;-4.78;100.00
23363;BME280;11853;48.080;11.960;2022-12-18T09:33:49;96063.22;;;-4.69;100.00
23363;BME280;11853;48.080;11.960;2022-12-18T09:36:16;96050.84;;;-4.55;100.00
23363;BME280;11853;48.080;11.960;2022-12-18T09:38:43;96056.66;;;-4.44;100.00
23363;BME280;11853;48.080;11.960;2022-12-18T09:41:36;96060.53;;;-4.23;100.00
23363;BME280;11853;48.080;11.960;2022-12-18T09:46:40;96057.19;;;-4.28;100.00
23363;BME280;11853;48.080;11.960;2022-12-18T09:49:13;96058.84;;;-4.25;100.00
23363;BME280;11853;48.080;11.960;2022-12-18T09:51:47;96062.50;;;-4.34;100.00
23363;BME280;11853;48.080;11.960;2022-12-18T09:54:18;96060.97;;;-4.44;100.00
23363;BME280;11853;48.080;11.960;2022-12-18T09:56:46;96058.59;;;-4.55;100.00
23363;BME280;11853;48.080;11.960;2022-12-18T09:59:26;96049.03;;;-4.50;100.00
23363;BME280;11853;48.080;11.960;2022-12-18T10:01:55;96054.13;;;-4.45;100.00
23363;BME280;11853;48.080;11.960;2022-12-18T10:04:20;96057.81;;;-4.18;100.00
23363;BME280;11853;48.080;11.960;2022-12-18T10:06:58;96048.22;;;-4.13;100.00
23363;BME280;11853;48.080;11.960;2022-12-18T10:18:27;96023.47;;;-4.26;100.00
23363;BME280;11853;48.080;11.960;2022-12-18T10:21:05;96027.16;;;-4.37;100.00
23363;BME280;11853;48.080;11.960;2022-12-18T10:24:16;96020.47;;;-4.47;100.00
23363;BME280;11853;48.080;11.960;2022-12-18T10:26:34;96014.16;;;-4.34;100.00
23363;BME280;11853;48.080;11.960;2022-12-18T10:29:00;96011.69;;;-4.40;100.00
23363;BME280;11853;48.080;11.960;2022-12-18T10:31:26;96008.56;;;-4.54;100.00
23363;BME280;11853;48.080;11.960;2022-12-18T10:33:55;95999.75;;;-4.47;100.00
23363;BME280;11853;48.080;11.960;2022-12-18T10:36:22;96004.00;;;-4.43;100.00
23363;BME280;11853;48.080;11.960;2022-12-18T10:38:48;96004.88;;;-4.44;100.00
23363;BME280;11853;48.080;11.960;2022-12-18T10:43:45;96005.75;;;-4.45;100.00
23363;BME280;11853;48.080;11.960;2022-12-18T10:46:14;96003.19;;;-4.45;100.00
23363;BME280;11853;48.080;11.960;2022-12-18T10:51:31;96007.53;;;-4.08;100.00
23363;BME280;11853;48.080;11.960;2022-12-18T10:54:25;96006.13;;;-3.86;100.00
23363;BME280;11853;48.080;11.960;2022-12-18T10:56:51;96001.16;;;-3.95;100.00
23363;BME280;11853;48.080;11.960;2022-12-18T10:59:17;96004.34;;;-4.21;100.00
23363;BME280;11853;48.080;11.960;2022-12-18T11:01:55;96003.34;;;-4.15;100.00
23363;BME280;11853;48.080;11.960;2022-12-18T11:04:26;96015.06;;;-3.99;100.00
23363;BME280;11853;48.080;11.960;2022-12-18T11:09:25;96005.22;;;-3.85;100.00
23363;BME280;11853;48.080;11.960;2022-12-18T11:11:53;95999.72;;;-3.71;100.00
23363;BME280;11853;48.080;11.960;2022-12-18T11:14:26;95997.53;;;-3.88;100.00
23363;BME280;11853;48.080;11.960;2022-12-18T11:16:54;96003.59;;;-3.89;100.00
23363;BME280;11853;48.080;11.960;2022-12-18T11:19:40;96000.72;;;-3.76;100.00
23363;BME280;11853;48.080;11.960;2022-12-18T11:22:29;95992.19;;;-3.81;100.00
23363;BME280;11853;48.080;11.960;2022-12-18T11:25:01;95991.53;;;-3.55;100.00
23363;BME280;11853;48.080;11.960;2022-12-18T11:27:28;95992.69;;;-3.67;100.00
23363;BME280;11853;48.080;11.960;2022-12-18T11:30:07;95995.50;;;-3.42;100.00
23363;BME280;11853;48.080;11.960;2022-12-18T11:32:37;95997.59;;;-3.22;100.00
23363;BME280;11853;48.080;11.960;2022-12-18T11:35:19;95999.91;;;-3.13;100.00
23363;BME280;11853;48.080;11.960;2022-12-18T11:37:56;95996.41;;;-3.12;100.00
23363;BME280;11853;48.080;11.960;2022-12-18T11:40:36;95996.88;;;-2.98;100.00
23363;BME280;11853;48.080;11.960;2022-12-18T11:43:45;96003.44;;;-2.84;100.00
23363;BME280;11853;48.080;11.960;2022-12-18T11:46:00;96002.22;;;-2.71;100.00
23363;BME280;11853;48.080;11.960;2022-12-18T11:51:00;95996.56;;;-2.85;100.00
23363;BME280;11853;48.080;11.960;2022-12-18T11:53:29;95991.13;;;-2.78;100.00
23363;BME280;11853;48.080;11.960;2022-12-18T12:01:15;95989.91;;;-2.94;100.00
23363;BME280;11853;48.080;11.960;2022-12-18T12:06:53;95982.31;;;-3.02;100.00
23363;BME280;11853;48.080;11.960;2022-12-18T12:09:31;95995.16;;;-3.28;100.00
23363;BME280;11853;48.080;11.960;2022-12-18T12:18:23;95983.31;;;-3.38;100.00
23363;BME280;11853;48.080;11.960;2022-12-18T12:20:25;95987.06;;;-3.83;100.00
23363;BME280;11853;48.080;11.960;2022-12-18T12:36:52;95972.81;;;-3.67;100.00
23363;BME280;11853;48.080;11.960;2022-12-18T12:39:28;95971.28;;;-3.74;100.00
23363;BME280;11853;48.080;11.960;2022-12-18T12:41:56;95970.44;;;-3.74;100.00
23363;BME280;11853;48.080;11.960;2022-12-18T12:44:51;95951.53;;;-3.79;100.00
23363;BME280;11853;48.080;11.960;2022-12-18T12:47:30;95958.41;;;-3.78;100.00
23363;BME280;11853;48.080;11.960;2022-12-18T12:49:59;95964.91;;;-3.96;100.00
23363;BME280;11853;48.080;11.960;2022-12-18T12:52:40;95961.47;;;-3.97;100.00
23363;BME280;11853;48.080;11.960;2022-12-18T12:55:22;95955.97;;;-3.83;100.00
23363;BME280;11853;48.080;11.960;2022-12-18T12:57:55;95953.47;;;-3.88;100.00
23363;BME280;11853;48.080;11.960;2022-12-18T13:00:25;95951.63;;;-3.82;100.00
23363;BME280;11853;48.080;11.960;2022-12-18T13:03:03;95952.38;;;-3.79;100.00
23363;BME280;11853;48.080;11.960;2022-12-18T13:05:45;95961.41;;;-3.61;100.00
23363;BME280;11853;48.080;11.960;2022-12-18T13:08:31;95960.72;;;-3.66;100.00
23363;BME280;11853;48.080;11.960;2022-12-18T13:10:58;95959.25;;;-3.76;100.00
23363;BME280;11853;48.080;11.960;2022-12-18T13:13:53;95960.13;;;-3.77;100.00
23363;BME280;11853;48.080;11.960;2022-12-18T13:16:25;95962.72;;;-3.77;100.00
23363;BME280;11853;48.080;11.960;2022-12-18T13:18:57;95963.06;;;-3.57;100.00
23363;BME280;11853;48.080;11.960;2022-12-18T13:21:33;95977.53;;;-3.48;100.00
23363;BME280;11853;48.080;11.960;2022-12-18T13:24:26;95977.38;;;-3.42;100.00
23363;BME280;11853;48.080;11.960;2022-12-18T13:26:58;95985.81;;;-3.35;100.00
23363;BME280;11853;48.080;11.960;2022-12-18T13:29:56;95984.31;;;-3.43;100.00
23363;BME280;11853;48.080;11.960;2022-12-18T13:32:24;95987.28;;;-3.58;100.00
23363;BME280;11853;48.080;11.960;2022-12-18T13:37:52;95985.91;;;-3.71;100.00
23363;BME280;11853;48.080;11.960;2022-12-18T13:48:34;95981.47;;;-3.66;100.00
23363;BME280;11853;48.080;11.960;2022-12-18T13:51:03;95987.34;;;-3.61;100.00
23363;BME280;11853;48.080;11.960;2022-12-18T13:53:37;95986.50;;;-3.62;100.00
23363;BME280;11853;48.080;11.960;2022-12-18T13:56:05;95992.16;;;-3.80;100.00
23363;BME280;11853;48.080;11.960;2022-12-18T13:58:31;95982.31;;;-3.67;100.00
23363;BME280;11853;48.080;11.960;2022-12-18T14:00:57;95981.28;;;-3.60;100.00
23363;BME280;11853;48.080;11.960;2022-12-18T14:03:26;95981.97;;;-3.86;100.00
23363;BME280;11853;48.080;11.960;2022-12-18T14:06:02;95983.22;;;-4.04;100.00
23363;BME280;11853;48.080;11.960;2022-12-18T14:08:39;95979.47;;;-3.91;100.00
23363;BME280;11853;48.080;11.960;2022-12-18T14:11:06;95981.31;;;-3.96;100.00